Sycamore, Ohio
Current Conditions -  °F | °C
As of 8:53 AM on Monday 20 Oct 2014 (Local Time) from KMNN Reporting Station
Overcast Overcast  
Wind Chill: 45°   Ceiling: 9000
Heat Index: 49°   Visibility: 7mi
Dew Point: 41°   Wind: 9mph
Humidity: 74%   Direction: 200°SSW
Pressure: 29.95"   Gusts: NA
Location:  40.95°N, 83.17°W
Report Text: KMNN 201253Z AUTO 20008KT 7SM OVC090 09/05 A2995 RMK AO2 SLP148 T00940050 TSNO
Loading
Personal Weather Stations






























Interactive Weather Map
Tropical Storm Tracking
New forecast layout! Learn more

10-Day Weather Forecast

Advertisements
Track Severe Weather on mobile